Главная страница
METAR-TAF:

METAR-TAF

Аэропорты :

Нджамена, Чад

широта: 12-08N, долгота: 015-02E, высота над уровнем моря: 295 м

Текущие метеонаблюдения

Эта сводка был подготовлена 46 минут назад, в 04:00 UTC
Ветер 3 Узел от северный
Температура 26°C
Влажность 45%
Давление 1006 hPa
Видимость: 8000 м

METAR: FTTJ 200400Z 35003KT 8000 NSC 26/13 Q1006 NOSIG

Время: 05:46 (04:46 UTC)

Прогноз

Эта сводка был подготовлена 5 часа и 46 минут назад, в 23:00 UTC
Прогноз действительный с 20-го 00 UTC до 21-го 06 UTC
Ветер 4 Узел от северно-северо-западный
Видимость 10 км и более
Нет облачности ниже 1500 м, и нет кучево-дождевой облачности
изменения
С 20-го 06 UTC до 20-го 08 UTC
Ветер 10 Узел от северо-восточный
Видимость: 4500 м
мгла

TAF: FTTJ 192300Z 2000/2106 34004KT CAVOK BECMG 2006/2008 04010KT 4500 HZ

Метеонаблюдения и прогнозы для более 4000 аэропортов (сводки METAR и TAF).

Имеющиеся станции представлены на карте желтыми и красными точками.

Чтобы увидеть название станции, наведите на нее мышь.

Затем щелкните, чтобы увидеть метеонаблюдения и метеопрогнозы.

Управление картой: чтобы увеличить масштаб, щелкните зеленые кнопки с черным крестиком; чтобы уменьшить масштаб, щелкните зеленую кнопку с тире; для просмотра соседних карт щелкайте зеленые стрелки.


METAR-TAF: